Time;durP1;ratioP1;P1;durP2;ratioP2;P2;SDS_P1;SDS_P2;PMS_P1;PMS_P2;Temp;Humidity;BMP_temperature;BMP_pressure;BME280_temperature;BME280_humidity;BME280_pressure;Samples;Min_cycle;Max_cycle;Signal;HPM_P1;HPM_P2
2022/05/25 00:02:19;;;;;;;5.82;3.65;;;22.80;1.00;;;;;;5006860;28;20333;-50
2022/05/25 00:04:45;;;;;;;4.13;3.53;;;22.80;1.00;;;;;;4996037;28;20404;-53
2022/05/25 00:07:12;;;;;;;8.05;3.70;;;22.90;1.00;;;;;;5008715;28;20034;-48
2022/05/25 00:09:38;;;;;;;6.07;3.33;;;22.80;1.00;;;;;;5015312;28;20127;-48
2022/05/25 00:12:06;;;;;;;5.20;3.47;;;22.70;1.00;;;;;;5014017;28;20026;-51
2022/05/25 00:14:32;;;;;;;5.15;2.95;;;22.80;1.00;;;;;;5015504;28;20104;-51
2022/05/25 00:16:59;;;;;;;3.75;2.78;;;22.70;1.00;;;;;;5003117;28;20034;-52
2022/05/25 00:22:08;;;;;;;3.80;3.20;;;22.60;1.00;;;;;;5004010;28;20041;-50
2022/05/25 00:24:34;;;;;;;3.17;2.88;;;22.70;1.00;;;;;;4995463;28;20027;-51
2022/05/25 00:27:00;;;;;;;6.45;3.33;;;22.70;1.00;;;;;;5012574;28;20108;-52
2022/05/25 00:29:25;;;;;;;3.95;2.80;;;22.70;1.00;;;;;;5015561;28;20392;-49
2022/05/25 00:31:51;;;;;;;4.65;3.60;;;22.70;1.00;;;;;;5004683;28;20030;-48
2022/05/25 00:34:17;;;;;;;4.43;3.35;;;22.70;1.00;;;;;;5015298;28;20041;-49
2022/05/25 00:36:43;;;;;;;4.57;4.18;;;22.70;1.00;;;;;;5013922;28;20121;-50
2022/05/25 00:39:09;;;;;;;4.97;3.30;;;22.70;1.00;;;;;;5014935;28;20468;-48
2022/05/25 00:41:35;;;;;;;3.42;3.03;;;22.60;1.00;;;;;;5014500;28;20053;-52
2022/05/25 00:44:01;;;;;;;4.82;2.90;;;22.70;1.00;;;;;;5014826;28;20030;-52
2022/05/25 00:46:29;;;;;;;3.85;2.92;;;22.60;1.00;;;;;;5014071;28;20026;-48
2022/05/25 00:49:00;;;;;;;7.20;3.33;;;22.60;1.00;;;;;;5014899;28;20040;-52
2022/05/25 00:51:48;;;;;;;6.57;3.78;;;22.60;1.00;;;;;;5013443;28;20022;-52
2022/05/25 00:54:20;;;;;;;5.00;3.60;;;22.70;1.00;;;;;;5013710;28;20109;-48
2022/05/25 00:56:48;;;;;;;9.05;4.38;;;22.60;1.00;;;;;;5006321;28;20022;-52
2022/05/25 00:59:26;;;;;;;5.30;4.68;;;22.60;1.00;;;;;;5000683;28;20074;-49
2022/05/25 01:01:52;;;;;;;7.47;4.70;;;22.60;1.00;;;;;;5013208;28;20025;-48
2022/05/25 01:04:18;;;;;;;6.00;4.80;;;22.60;1.00;;;;;;5014451;28;20054;-47
2022/05/25 01:06:52;;;;;;;5.95;4.57;;;22.60;1.00;;;;;;5006612;28;20027;-47
2022/05/25 01:09:36;;;;;;;7.00;5.30;;;22.60;1.00;;;;;;4993592;28;20038;-47
2022/05/25 01:12:24;;;;;;;6.85;6.05;;;22.60;1.00;;;;;;5002937;28;20503;-50
2022/05/25 01:15:19;;;;;;;8.75;5.35;;;22.60;1.00;;;;;;4996280;28;20041;-49
2022/05/25 01:17:54;;;;;;;6.15;4.68;;;22.60;1.00;;;;;;5004337;28;20061;-48
2022/05/25 01:20:45;;;;;;;6.10;5.45;;;22.60;1.00;;;;;;5013246;28;20048;-53
2022/05/25 01:23:26;;;;;;;7.82;5.55;;;22.70;1.00;;;;;;4995827;28;20108;-52
2022/05/25 01:26:15;;;;;;;5.80;5.20;;;22.60;1.00;;;;;;4999914;28;20583;-49
2022/05/25 01:29:05;;;;;;;5.72;5.22;;;22.60;1.00;;;;;;4985681;28;20045;-51
2022/05/25 01:31:34;;;;;;;7.30;5.10;;;22.60;1.00;;;;;;5006929;28;20514;-51
2022/05/25 01:34:30;;;;;;;5.63;4.95;;;22.60;1.00;;;;;;5012812;28;20483;-51
2022/05/25 01:37:11;;;;;;;7.05;4.80;;;22.60;1.00;;;;;;5013009;28;20098;-49
2022/05/25 01:39:44;;;;;;;7.57;5.35;;;22.60;1.00;;;;;;5014023;28;20095;-51
2022/05/25 01:42:17;;;;;;;5.85;4.90;;;22.60;1.00;;;;;;5011804;28;20037;-52
2022/05/25 01:44:51;;;;;;;10.77;5.55;;;22.60;1.00;;;;;;5014134;28;20030;-50
2022/05/25 01:47:18;;;;;;;7.97;5.38;;;22.50;1.00;;;;;;5011919;28;20146;-51
2022/05/25 01:49:46;;;;;;;5.70;4.60;;;22.60;1.00;;;;;;5013879;28;20089;-48
2022/05/25 01:52:20;;;;;;;7.07;5.03;;;22.60;1.00;;;;;;5001974;28;20392;-47
2022/05/25 01:54:54;;;;;;;;;;;22.70;1.00;;;;;;5014194;28;20026;-50
2022/05/25 01:57:27;;;;;;;8.65;5.00;;;22.60;1.00;;;;;;5012536;28;19992;-50
2022/05/25 01:59:53;;;;;;;6.57;5.35;;;22.60;1.00;;;;;;5012351;28;20095;-49
2022/05/25 02:05:10;;;;;;;5.13;4.63;;;22.70;1.00;;;;;;4994669;28;20069;-52
2022/05/25 02:14:48;;;;;;;6.50;5.18;;;22.70;1.00;;;;;;5002154;28;20045;-51
2022/05/25 02:17:33;;;;;;;7.20;5.65;;;22.70;1.00;;;;;;5010703;28;20080;-47
2022/05/25 02:20:24;;;;;;;5.90;5.28;;;22.70;1.00;;;;;;5002738;28;20050;-53
2022/05/25 02:22:52;;;;;;;6.15;5.57;;;22.70;1.00;;;;;;5006700;28;20026;-53
2022/05/25 02:25:42;;;;;;;5.15;4.30;;;22.70;1.00;;;;;;5013153;28;20049;-53
2022/05/25 02:28:17;;;;;;;6.90;4.90;;;22.40;1.00;;;;;;5012210;28;20423;-52
2022/05/25 02:30:47;;;;;;;6.55;5.47;;;22.60;1.00;;;;;;5011986;28;20029;-52
2022/05/25 02:33:17;;;;;;;7.38;6.10;;;22.60;1.00;;;;;;5010800;28;20380;-49
2022/05/25 02:35:45;;;;;;;7.45;5.63;;;22.60;1.00;;;;;;5011881;28;20440;-53
2022/05/25 02:38:11;;;;;;;6.03;5.53;;;22.60;1.00;;;;;;5011867;28;20395;-49
2022/05/25 02:40:39;;;;;;;5.43;4.78;;;22.60;1.00;;;;;;5012918;28;20030;-49
2022/05/25 02:43:06;;;;;;;6.47;4.82;;;22.70;1.00;;;;;;5011666;28;20038;-52
2022/05/25 02:45:32;;;;;;;10.27;5.22;;;22.70;1.00;;;;;;5013613;28;20030;-50
2022/05/25 02:47:58;;;;;;;5.85;5.10;;;22.70;1.00;;;;;;5012385;28;20132;-47
2022/05/25 02:50:24;;;;;;;7.45;4.88;;;22.70;1.00;;;;;;5012161;28;20547;-50
2022/05/25 02:52:50;;;;;;;5.82;4.38;;;22.70;1.00;;;;;;5041756;28;20038;-51
2022/05/25 02:55:16;;;;;;;7.53;4.30;;;22.50;1.00;;;;;;5011274;28;20026;-47
2022/05/25 02:57:42;;;;;;;4.43;4.00;;;22.30;1.00;;;;;;5012056;28;20029;-49
2022/05/25 03:03:33;;;;;;;5.43;4.38;;;22.40;1.00;;;;;;5005246;28;20084;-48
2022/05/25 03:05:59;;;;;;;5.60;4.80;;;22.50;1.00;;;;;;4997265;28;20038;-49
2022/05/25 03:08:26;;;;;;;6.25;4.45;;;22.50;1.00;;;;;;5001936;28;20033;-47
2022/05/25 03:10:52;;;;;;;5.53;4.45;;;22.30;1.00;;;;;;5017025;28;20030;-49
2022/05/25 03:13:18;;;;;;;7.03;4.43;;;22.40;1.00;;;;;;5007119;28;20025;-50
2022/05/25 03:15:43;;;;;;;6.15;4.70;;;22.50;1.00;;;;;;5017076;28;20028;-50
2022/05/25 03:18:09;;;;;;;5.32;4.22;;;22.40;1.00;;;;;;5015268;28;20042;-49
2022/05/25 03:20:35;;;;;;;7.22;4.50;;;22.50;1.00;;;;;;5016568;28;20038;-51
2022/05/25 03:23:01;;;;;;;6.50;4.90;;;22.50;1.00;;;;;;5014922;28;20029;-48
2022/05/25 03:25:26;;;;;;;7.43;5.80;;;22.50;1.00;;;;;;5016383;28;20446;-48
2022/05/25 03:27:52;;;;;;;7.88;5.65;;;22.40;1.00;;;;;;5014593;28;20030;-48
2022/05/25 03:30:20;;;;;;;9.73;6.10;;;22.50;1.00;;;;;;4995377;28;20112;-49
2022/05/25 03:32:46;;;;;;;9.43;6.72;;;22.50;1.00;;;;;;4999885;28;20023;-51
2022/05/25 03:35:12;;;;;;;8.85;6.88;;;22.40;1.00;;;;;;4995914;28;20038;-52
2022/05/25 03:37:38;;;;;;;8.93;7.15;;;22.40;1.00;;;;;;4996774;28;20417;-51
2022/05/25 03:40:06;;;;;;;10.00;7.25;;;22.40;1.00;;;;;;5013981;28;20045;-51
2022/05/25 03:42:32;;;;;;;8.07;7.22;;;22.40;1.00;;;;;;5014277;28;20030;-48
2022/05/25 03:44:58;;;;;;;10.85;8.43;;;22.40;1.00;;;;;;4997015;28;20552;-48
2022/05/25 03:47:27;;;;;;;11.50;8.48;;;22.40;1.00;;;;;;4995896;28;20109;-53
2022/05/25 03:49:52;;;;;;;9.55;7.95;;;22.30;1.00;;;;;;5006211;28;20482;-48
2022/05/25 03:52:22;;;;;;;8.80;7.97;;;22.30;1.00;;;;;;5009183;28;20097;-51
2022/05/25 03:54:48;;;;;;;11.85;8.90;;;22.20;1.00;;;;;;5013700;28;20542;-50
2022/05/25 03:57:14;;;;;;;10.48;7.80;;;22.20;1.00;;;;;;5014411;28;20018;-51
2022/05/25 03:59:39;;;;;;;10.38;9.18;;;22.20;1.00;;;;;;5015401;28;20034;-52
2022/05/25 04:02:05;;;;;;;9.05;8.15;;;22.20;1.00;;;;;;5014573;28;20028;-52
2022/05/25 04:04:31;;;;;;;9.65;8.38;;;22.20;1.00;;;;;;5015706;28;20475;-51
2022/05/25 04:06:57;;;;;;;8.80;7.95;;;22.20;1.00;;;;;;5014792;28;20026;-53
2022/05/25 04:09:22;;;;;;;12.23;8.60;;;22.20;1.00;;;;;;5005517;28;20369;-47
2022/05/25 04:11:49;;;;;;;9.18;7.82;;;22.20;1.00;;;;;;5011577;28;20037;-52
2022/05/25 04:14:15;;;;;;;10.45;8.38;;;22.20;1.00;;;;;;5015344;28;20129;-50
2022/05/25 04:16:42;;;;;;;12.05;8.85;;;22.20;1.00;;;;;;4999458;28;20027;-48
2022/05/25 04:19:08;;;;;;;9.68;7.65;;;22.30;1.00;;;;;;4994675;28;20365;-48
2022/05/25 04:21:34;;;;;;;10.95;8.07;;;22.30;1.00;;;;;;5008338;28;20041;-49
2022/05/25 04:24:00;;;;;;;8.93;7.82;;;22.30;1.00;;;;;;5015451;28;20025;-50
2022/05/25 04:26:28;;;;;;;8.52;7.55;;;22.30;1.00;;;;;;4995083;28;20037;-49
2022/05/25 04:28:54;;;;;;;9.57;8.57;;;22.30;1.00;;;;;;4995879;28;20046;-48
2022/05/25 04:31:19;;;;;;;10.65;8.90;;;22.20;1.00;;;;;;5002327;28;20112;-48
2022/05/25 04:33:45;;;;;;;10.45;9.40;;;22.20;1.00;;;;;;4996047;28;20110;-49
2022/05/25 04:36:11;;;;;;;9.80;8.80;;;22.10;1.00;;;;;;5000617;28;20065;-50
2022/05/25 04:38:36;;;;;;;11.77;10.02;;;22.20;1.00;;;;;;4995715;28;20022;-51
2022/05/25 04:41:02;;;;;;;11.95;10.50;;;22.20;1.00;;;;;;5009185;28;20092;-52
2022/05/25 04:43:28;;;;;;;11.57;9.63;;;22.20;1.00;;;;;;5014782;28;20068;-47
2022/05/25 04:45:54;;;;;;;12.10;10.13;;;22.20;1.00;;;;;;5014417;28;20088;-47
2022/05/25 04:48:23;;;;;;;12.98;10.00;;;22.20;1.00;;;;;;5011778;28;20105;-52
2022/05/25 04:50:50;;;;;;;11.27;9.93;;;22.10;1.00;;;;;;5011071;28;20097;-49
2022/05/25 04:53:19;;;;;;;11.93;9.80;;;22.20;1.00;;;;;;5009446;28;20388;-50
2022/05/25 04:58:35;;;;;;;12.25;10.95;;;22.10;1.00;;;;;;5011891;28;20096;-50
2022/05/25 05:01:02;;;;;;;13.90;11.10;;;22.10;1.00;;;;;;5002599;28;20068;-51
2022/05/25 05:03:28;;;;;;;12.30;10.63;;;22.10;1.00;;;;;;5014606;28;20026;-48
2022/05/25 05:05:55;;;;;;;13.93;11.10;;;22.10;1.00;;;;;;5006481;28;20026;-49
2022/05/25 05:08:22;;;;;;;12.13;10.95;;;22.10;1.00;;;;;;4995317;28;20089;-47
2022/05/25 05:10:48;;;;;;;13.70;10.77;;;22.10;1.00;;;;;;5010054;28;20032;-50
2022/05/25 05:13:14;;;;;;;13.05;11.63;;;22.10;1.00;;;;;;4995352;28;20037;-51
2022/05/25 05:15:49;;;;;;;15.20;12.07;;;22.20;1.00;;;;;;4999074;28;20026;-48
2022/05/25 05:18:15;;;;;;;13.77;12.35;;;22.10;1.00;;;;;;5013884;28;20034;-47
2022/05/25 05:20:41;;;;;;;15.50;12.40;;;22.20;1.00;;;;;;5013545;28;20438;-50
2022/05/25 05:23:07;;;;;;;13.15;11.82;;;22.10;1.00;;;;;;5013572;28;20129;-47
2022/05/25 05:25:34;;;;;;;14.70;12.60;;;22.20;1.00;;;;;;5012866;28;20073;-47
2022/05/25 05:28:15;;;;;;;14.18;12.25;;;22.20;1.00;;;;;;5001695;28;20034;-52
2022/05/25 05:30:48;;;;;;;13.85;12.30;;;22.20;1.00;;;;;;5000181;28;20056;-48
2022/05/25 05:33:14;;;;;;;13.00;11.70;;;22.20;1.00;;;;;;5014682;28;20020;-48
2022/05/25 05:35:40;;;;;;;14.05;11.60;;;22.30;1.00;;;;;;4996688;28;20113;-48
2022/05/25 05:38:06;;;;;;;14.38;12.23;;;22.30;1.00;;;;;;5005236;28;20516;-49
2022/05/25 05:40:32;;;;;;;13.52;12.05;;;22.30;1.00;;;;;;5012048;28;20053;-47
2022/05/25 05:43:01;;;;;;;14.07;11.95;;;22.30;1.00;;;;;;5014325;28;20022;-49
2022/05/25 05:45:31;;;;;;;15.02;11.48;;;22.30;1.00;;;;;;5013134;28;20057;-48
2022/05/25 05:48:01;;;;;;;13.38;9.68;;;22.40;1.00;;;;;;4998615;28;20058;-47
2022/05/25 05:50:29;;;;;;;13.43;10.93;;;22.50;1.00;;;;;;4995230;28;20034;-51
2022/05/25 05:52:54;;;;;;;12.73;10.32;;;22.50;1.00;;;;;;5013290;28;20036;-48
2022/05/25 05:55:21;;;;;;;11.00;9.95;;;22.50;1.00;;;;;;5011903;28;20447;-50
2022/05/25 05:57:48;;;;;;;13.05;10.30;;;22.40;1.00;;;;;;5003921;28;20030;-51
2022/05/25 06:00:15;;;;;;;12.18;11.00;;;22.50;1.00;;;;;;5012180;28;20033;-51
2022/05/25 06:02:41;;;;;;;13.55;10.35;;;22.50;1.00;;;;;;4993381;28;20041;-56
2022/05/25 06:05:09;;;;;;;10.75;9.10;;;22.60;1.00;;;;;;4998903;28;20385;-52
2022/05/25 06:07:34;;;;;;;11.90;9.70;;;22.60;1.00;;;;;;5009631;28;20057;-48
2022/05/25 06:10:00;;;;;;;11.45;9.30;;;22.60;1.00;;;;;;5002473;28;20073;-48
2022/05/25 06:21:21;;;;;;;11.85;9.70;;;22.70;1.00;;;;;;5005818;28;20061;-50
2022/05/25 06:23:46;;;;;;;13.73;9.55;;;22.70;1.00;;;;;;5013442;28;20026;-50
2022/05/25 06:26:14;;;;;;;10.15;9.18;;;22.70;1.00;;;;;;5012388;28;20037;-48
2022/05/25 06:28:40;;;;;;;14.50;9.05;;;22.60;1.00;;;;;;5006979;28;20037;-51
2022/05/25 06:31:06;;;;;;;10.50;8.52;;;22.60;1.00;;;;;;4997850;28;20030;-53
2022/05/25 06:33:32;;;;;;;12.95;9.85;;;22.60;1.00;;;;;;5011585;28;20384;-51
2022/05/25 06:36:17;;;;;;;11.27;9.10;;;22.60;1.00;;;;;;5008633;28;20460;-48
2022/05/25 06:38:44;;;;;;;11.80;8.48;;;22.70;1.00;;;;;;5010946;28;20034;-46
2022/05/25 06:41:10;;;;;;;10.63;8.95;;;22.80;1.00;;;;;;5011942;28;20044;-48
2022/05/25 06:43:36;;;;;;;11.75;7.57;;;22.80;1.00;;;;;;5013144;28;20460;-49
2022/05/25 06:46:03;;;;;;;11.20;7.35;;;22.80;1.00;;;;;;5011644;28;20022;-48
2022/05/25 06:48:28;;;;;;;10.15;6.50;;;22.80;1.00;;;;;;5010480;28;20100;-52
2022/05/25 06:50:54;;;;;;;9.23;6.68;;;22.70;1.00;;;;;;5008594;28;20476;-53
2022/05/25 06:53:20;;;;;;;10.65;7.00;;;22.70;1.00;;;;;;5007674;28;20036;-53
2022/05/25 06:55:46;;;;;;;12.57;6.55;;;22.80;1.00;;;;;;5007813;28;20476;-47
2022/05/25 06:58:12;;;;;;;9.68;7.60;;;22.80;1.00;;;;;;5030084;28;20069;-54
2022/05/25 07:00:37;;;;;;;10.00;7.38;;;22.90;1.00;;;;;;5005551;28;20030;-42
2022/05/25 07:03:05;;;;;;;11.05;8.13;;;22.90;1.00;;;;;;5029432;28;20030;-48
2022/05/25 07:05:30;;;;;;;10.52;7.75;;;22.90;1.00;;;;;;5030928;28;20095;-48
2022/05/25 07:07:56;;;;;;;11.25;6.57;;;23.00;1.00;;;;;;5008947;28;20026;-44
2022/05/25 07:10:22;;;;;;;10.30;6.95;;;23.00;1.00;;;;;;5000250;28;20029;-57
2022/05/25 07:12:48;;;;;;;8.32;6.72;;;23.10;1.00;;;;;;5009067;28;20483;-50
2022/05/25 07:15:14;;;;;;;10.57;7.10;;;22.90;1.00;;;;;;5000762;28;20084;-55
2022/05/25 07:17:40;;;;;;;12.40;7.43;;;23.00;1.00;;;;;;5007911;28;20121;-52
2022/05/25 07:20:09;;;;;;;10.15;6.25;;;23.00;1.00;;;;;;5004104;28;20393;-52
2022/05/25 07:22:35;;;;;;;8.05;7.13;;;23.00;1.00;;;;;;5007213;28;20101;-53
2022/05/25 07:28:23;;;;;;;9.77;7.22;;;23.20;1.00;;;;;;4996577;28;20081;-53
2022/05/25 07:30:51;;;;;;;10.32;6.95;;;23.20;1.00;;;;;;5012057;28;20034;-54
2022/05/25 07:33:17;;;;;;;18.02;8.88;;;23.20;1.00;;;;;;5011362;28;20084;-51
2022/05/25 07:35:43;;;;;;;9.07;8.02;;;23.20;1.00;;;;;;5001153;28;20050;-54
2022/05/25 07:38:09;;;;;;;12.82;8.25;;;23.10;1.00;;;;;;5009313;28;20026;-54
2022/05/25 07:40:38;;;;;;;9.75;7.88;;;23.20;1.00;;;;;;4998300;28;20038;-48
2022/05/25 07:56:01;;;;;;;9.15;7.72;;;23.30;1.00;;;;;;5011470;28;20053;-52
2022/05/25 07:58:26;;;;;;;10.52;7.30;;;23.40;1.00;;;;;;4995432;28;20089;-52
2022/05/25 08:00:55;;;;;;;9.45;5.82;;;23.50;1.00;;;;;;5015583;28;20424;-51
2022/05/25 08:06:06;;;;;;;5.80;5.30;;;23.50;1.00;;;;;;5015124;28;20100;-52
2022/05/25 08:08:32;;;;;;;9.93;5.25;;;23.50;1.00;;;;;;5013836;28;20438;-47
2022/05/25 08:11:08;;;;;;;7.40;4.68;;;23.50;1.00;;;;;;5015700;28;20018;-54
2022/05/25 08:13:41;;;;;;;6.47;5.00;;;23.50;1.00;;;;;;5013703;28;20030;-48
2022/05/25 08:16:08;;;;;;;8.38;5.90;;;23.60;1.00;;;;;;5001944;28;20023;-54
2022/05/25 08:18:34;;;;;;;8.40;5.03;;;23.50;1.00;;;;;;5009805;28;20040;-55
2022/05/25 08:21:00;;;;;;;6.82;5.03;;;23.50;1.00;;;;;;5014361;28;20049;-53
2022/05/25 08:23:26;;;;;;;5.43;4.47;;;23.70;1.00;;;;;;5035438;28;20026;-54
2022/05/25 08:25:52;;;;;;;6.80;4.72;;;23.60;1.00;;;;;;5024889;28;20121;-54
2022/05/25 08:28:18;;;;;;;8.48;5.90;;;23.70;1.00;;;;;;5013874;28;20598;-53
2022/05/25 08:30:45;;;;;;;6.38;5.18;;;23.80;1.00;;;;;;5009428;28;20116;-54
2022/05/25 08:33:11;;;;;;;9.05;6.07;;;23.80;1.00;;;;;;5012402;28;20490;-56
2022/05/25 08:35:37;;;;;;;7.88;5.97;;;23.80;1.00;;;;;;5014456;28;20037;-52
2022/05/25 08:38:03;;;;;;;6.38;5.07;;;23.90;1.00;;;;;;5013509;28;20026;-53
2022/05/25 08:40:31;;;;;;;6.20;5.22;;;23.90;1.00;;;;;;5008142;28;20109;-54
2022/05/25 08:43:08;;;;;;;5.05;4.47;;;23.90;1.00;;;;;;4999957;28;20029;-52
2022/05/25 08:45:38;;;;;;;6.10;4.53;;;24.00;1.00;;;;;;5005589;28;20033;-52
2022/05/25 08:48:06;;;;;;;6.22;5.07;;;24.10;1.00;;;;;;5015191;28;20030;-52
2022/05/25 08:50:33;;;;;;;12.82;6.15;;;24.10;1.00;;;;;;5022455;28;20037;-50
2022/05/25 08:53:00;;;;;;;7.15;5.32;;;24.10;1.00;;;;;;5008290;28;20014;-53
2022/05/25 08:55:57;;;;;;;8.38;5.63;;;24.10;1.00;;;;;;5003408;28;20054;-52
2022/05/25 08:58:29;;;;;;;8.70;5.38;;;24.10;1.00;;;;;;5011411;28;20068;-54
2022/05/25 09:04:38;;;;;;;9.43;5.15;;;24.20;1.00;;;;;;4997081;28;20531;-54
2022/05/25 09:07:21;;;;;;;4.82;4.20;;;24.20;1.00;;;;;;5004415;28;20023;-54
2022/05/25 09:09:49;;;;;;;5.55;4.18;;;24.30;1.00;;;;;;5000292;28;20030;-52
2022/05/25 09:12:24;;;;;;;8.80;4.70;;;24.40;1.00;;;;;;5002248;28;20026;-56
2022/05/25 09:15:01;;;;;;;7.45;4.90;;;24.50;1.00;;;;;;4999260;28;20389;-57
2022/05/25 09:17:34;;;;;;;7.57;4.75;;;24.70;1.00;;;;;;5000383;28;20023;-53
2022/05/25 09:20:01;;;;;;;6.78;4.07;;;24.70;1.00;;;;;;5003318;28;20046;-53
2022/05/25 09:22:27;;;;;;;5.88;5.13;;;24.70;1.00;;;;;;5002893;28;20026;-53
2022/05/25 09:24:56;;;;;;;6.55;5.50;;;24.70;1.00;;;;;;5003165;28;20153;-53
2022/05/25 09:27:38;;;;;;;6.07;5.18;;;24.70;1.00;;;;;;5003442;28;20030;-54
2022/05/25 09:30:05;;;;;;;5.15;4.35;;;24.70;1.00;;;;;;4999508;28;20030;-53
2022/05/25 09:32:36;;;;;;;7.03;4.32;;;24.60;1.00;;;;;;5000954;28;20029;-55
2022/05/25 09:35:24;;;;;;;5.28;3.90;;;24.60;1.00;;;;;;4996407;28;20026;-53
2022/05/25 09:38:02;;;;;;;6.30;3.83;;;24.50;1.00;;;;;;4998263;28;20518;-55
2022/05/25 09:40:39;;;;;;;7.15;4.35;;;24.60;1.00;;;;;;5001702;28;20117;-53
2022/05/25 09:43:09;;;;;;;7.35;4.55;;;24.60;1.00;;;;;;5001315;28;20049;-55
2022/05/25 09:49:03;;;;;;;8.45;4.18;;;24.80;1.00;;;;;;5001815;28;20033;-55
2022/05/25 09:51:41;;;;;;;7.65;4.40;;;25.00;1.00;;;;;;5000526;28;20025;-53
2022/05/25 09:54:18;;;;;;;10.25;5.15;;;25.10;1.00;;;;;;4997372;28;20026;-52
2022/05/25 09:56:52;;;;;;;6.03;4.40;;;25.40;1.00;;;;;;5002436;28;20093;-56
2022/05/25 09:59:30;;;;;;;7.20;4.78;;;25.50;1.00;;;;;;5002534;28;20041;-55
2022/05/25 10:01:56;;;;;;;8.30;6.75;;;25.50;1.00;;;;;;5003456;28;20038;-54
2022/05/25 10:04:51;;;;;;;14.00;5.90;;;25.70;1.00;;;;;;5000881;28;20048;-55
2022/05/25 10:07:30;;;;;;;6.78;5.88;;;25.80;1.00;;;;;;5002808;28;20084;-55
2022/05/25 10:10:00;;;;;;;8.57;7.30;;;25.50;1.00;;;;;;5006136;28;20033;-55
2022/05/25 10:12:31;;;;;;;13.93;7.38;;;25.70;1.00;;;;;;5001390;28;20034;-57
2022/05/25 10:15:05;;;;;;;12.20;8.15;;;25.60;1.00;;;;;;5008311;28;20022;-52
2022/05/25 10:17:40;;;;;;;7.75;6.95;;;25.60;1.00;;;;;;5002698;28;20026;-55
2022/05/25 10:20:22;;;;;;;7.93;5.88;;;25.50;1.00;;;;;;5002390;28;20038;-56
2022/05/25 10:22:51;;;;;;;9.05;6.00;;;25.40;1.00;;;;;;5001985;28;20053;-52
2022/05/25 10:25:34;;;;;;;8.30;6.00;;;25.30;1.00;;;;;;4995962;28;20037;-54
2022/05/25 10:28:01;;;;;;;10.23;5.65;;;25.20;1.00;;;;;;4999954;28;20030;-58
2022/05/25 10:39:30;;;;;;;14.48;5.03;;;25.50;1.00;;;;;;4997660;28;20450;-57
2022/05/25 10:41:59;;;;;;;;;;;25.40;1.00;;;;;;5002473;28;20034;-61
2022/05/25 10:44:27;;;;;;;7.97;5.35;;;25.40;1.00;;;;;;4997718;28;20275;-53
2022/05/25 10:46:57;;;;;;;9.50;4.93;;;25.50;1.00;;;;;;4996295;28;20023;-55
2022/05/25 10:49:43;;;;;;;5.28;4.40;;;25.50;1.00;;;;;;5001148;28;20026;-53
2022/05/25 10:52:23;;;;;;;11.20;4.50;;;25.50;1.00;;;;;;4998142;28;20039;-54
2022/05/25 10:54:51;;;;;;;9.48;4.32;;;25.40;1.00;;;;;;5004047;28;20495;-54
2022/05/25 10:58:08;;;;;;;10.43;4.93;;;25.50;1.00;;;;;;5006145;28;20503;-55
2022/05/25 11:01:18;;;;;;;8.40;4.70;;;25.60;1.00;;;;;;4982191;28;20396;-57
2022/05/25 11:04:20;;;;;;;7.30;4.75;;;25.40;1.00;;;;;;4983284;28;20034;-53
2022/05/25 11:07:07;;;;;;;6.88;5.38;;;25.50;1.00;;;;;;5006852;28;20033;-55
2022/05/25 11:09:35;;;;;;;5.60;4.80;;;25.40;1.00;;;;;;5003604;28;20029;-54
2022/05/25 11:12:31;;;;;;;10.85;8.48;;;25.20;1.00;;;;;;5009576;28;20030;-54
2022/05/25 11:15:13;;;;;;;9.57;6.25;;;25.20;1.00;;;;;;5005364;28;20033;-53
2022/05/25 11:18:03;;;;;;;7.32;5.65;;;25.20;1.00;;;;;;5003134;28;20104;-51
2022/05/25 11:20:53;;;;;;;7.70;4.85;;;25.40;1.00;;;;;;5005460;28;20052;-55
2022/05/25 11:23:27;;;;;;;9.93;4.72;;;25.40;1.00;;;;;;5004047;28;20037;-50
2022/05/25 11:26:02;;;;;;;8.55;5.47;;;25.60;1.00;;;;;;5010772;28;20030;-54
2022/05/25 11:28:43;;;;;;;9.20;5.20;;;26.00;1.00;;;;;;5008041;28;20029;-55
2022/05/25 11:31:17;;;;;;;6.93;4.78;;;26.10;1.00;;;;;;5007144;28;20049;-52
2022/05/25 11:34:23;;;;;;;5.93;4.65;;;26.50;1.00;;;;;;5007937;28;20029;-54
2022/05/25 11:37:06;;;;;;;5.45;4.03;;;27.60;1.00;;;;;;5009289;28;20608;-50
2022/05/25 11:39:58;;;;;;;5.70;4.53;;;27.50;1.00;;;;;;5005577;28;20040;-51
2022/05/25 11:42:45;;;;;;;5.75;4.63;;;28.20;1.00;;;;;;5007366;28;20060;-48
2022/05/25 11:45:37;;;;;;;11.43;4.00;;;28.40;1.00;;;;;;5005369;28;20434;-54
2022/05/25 11:48:23;;;;;;;6.90;4.40;;;28.30;1.00;;;;;;5008699;28;20371;-50
2022/05/25 11:51:19;;;;;;;8.50;5.10;;;28.80;1.00;;;;;;5008031;28;20034;-54
2022/05/25 11:53:57;;;;;;;6.75;5.30;;;28.40;1.00;;;;;;5007038;28;20371;-48
2022/05/25 11:56:53;;;;;;;7.20;4.35;;;28.80;1.00;;;;;;5009584;28;20036;-52
2022/05/25 11:59:37;;;;;;;9.77;4.97;;;29.10;1.00;;;;;;5009465;28;20022;-47
2022/05/25 12:02:37;;;;;;;8.75;4.90;;;29.60;1.00;;;;;;5007126;28;20053;-49
2022/05/25 12:05:21;;;;;;;6.85;3.80;;;30.90;1.00;;;;;;5007019;28;20719;-47
2022/05/25 12:08:03;;;;;;;8.38;4.70;;;31.10;1.00;;;;;;5005787;28;20053;-52
2022/05/25 12:10:34;;;;;;;12.95;5.63;;;30.90;1.00;;;;;;5008679;28;20444;-51
2022/05/25 12:13:17;;;;;;;6.15;5.45;;;30.60;1.00;;;;;;5013215;28;20444;-52
2022/05/25 12:15:46;;;;;;;7.65;4.65;;;30.90;1.00;;;;;;5011603;28;20075;-47
2022/05/25 12:18:21;;;;;;;8.77;5.10;;;31.10;1.00;;;;;;5012222;28;20030;-52
2022/05/25 12:21:01;;;;;;;8.63;5.35;;;29.80;1.00;;;;;;5012010;28;20437;-53
2022/05/25 12:23:33;;;;;;;7.97;4.50;;;29.10;1.00;;;;;;4997855;28;20436;-52
2022/05/25 12:26:06;;;;;;;8.38;4.65;;;29.00;1.00;;;;;;5008542;28;20444;-49
2022/05/25 12:28:37;;;;;;;7.32;4.63;;;28.90;1.00;;;;;;5009223;28;20026;-51
2022/05/25 12:34:42;;;;;;;5.63;4.60;;;27.90;1.00;;;;;;5001733;28;20029;-52
2022/05/25 12:37:17;;;;;;;5.57;4.72;;;28.30;1.00;;;;;;5013754;28;20056;-53
2022/05/25 12:39:42;;;;;;;6.65;4.88;;;28.30;1.00;;;;;;5005510;28;20109;-52
2022/05/25 12:42:23;;;;;;;5.78;4.20;;;28.50;1.00;;;;;;5006513;28;20117;-52
2022/05/25 12:50:48;;;;;;;5.32;3.63;;;27.20;1.00;;;;;;5004182;28;20037;-50
2022/05/25 12:53:19;;;;;;;6.20;3.90;;;27.30;1.00;;;;;;5012134;28;20507;-49
2022/05/25 12:55:59;;;;;;;5.35;4.78;;;27.30;1.00;;;;;;5002453;28;20029;-53
2022/05/25 12:58:56;;;;;;;5.85;5.22;;;27.40;1.00;;;;;;5003167;28;20441;-53
2022/05/25 13:01:27;;;;;;;5.00;4.38;;;27.30;1.00;;;;;;4986935;28;20057;-52
2022/05/25 13:03:56;;;;;;;6.55;4.00;;;27.10;1.00;;;;;;5005111;28;20042;-51
2022/05/25 13:06:27;;;;;;;7.03;4.80;;;27.80;1.00;;;;;;5011202;28;20032;-52
2022/05/25 13:08:55;;;;;;;8.57;5.20;;;27.60;1.00;;;;;;5005605;28;20133;-53
2022/05/25 13:11:45;;;;;;;8.18;5.15;;;27.30;1.00;;;;;;5008292;28;20022;-51
2022/05/25 13:14:17;;;;;;;7.35;5.22;;;27.20;1.00;;;;;;5009129;28;20029;-52
2022/05/25 13:16:45;;;;;;;8.77;4.20;;;28.00;1.00;;;;;;5002341;28;20030;-53
2022/05/25 13:19:29;;;;;;;5.43;4.35;;;28.50;1.00;;;;;;5009690;28;20041;-51
2022/05/25 13:22:03;;;;;;;5.97;4.28;;;28.00;1.00;;;;;;5010212;28;20038;-49
2022/05/25 13:25:03;;;;;;;7.20;4.53;;;27.80;1.00;;;;;;5007974;28;20807;-50
2022/05/25 13:27:53;;;;;;;4.57;4.15;;;27.40;1.00;;;;;;5003818;28;20034;-50
2022/05/25 13:30:24;;;;;;;9.55;4.75;;;27.40;1.00;;;;;;5011581;28;20403;-54
2022/05/25 13:32:49;;;;;;;5.65;4.40;;;27.20;1.00;;;;;;5001260;28;20029;-52
2022/05/25 13:35:21;;;;;;;7.07;3.85;;;27.10;1.00;;;;;;5003708;28;20022;-51
2022/05/25 13:37:59;;;;;;;5.93;4.53;;;27.10;1.00;;;;;;4994701;28;20176;-51
2022/05/25 13:40:31;;;;;;;7.38;4.85;;;27.10;1.00;;;;;;5011048;28;20045;-54
2022/05/25 13:42:59;;;;;;;10.90;4.20;;;27.10;1.00;;;;;;5013182;28;20018;-51
2022/05/25 13:45:28;;;;;;;8.68;4.72;;;27.20;1.00;;;;;;4997429;28;20030;-53
2022/05/25 13:47:57;;;;;;;6.07;4.35;;;27.20;1.00;;;;;;4999530;28;20029;-50
2022/05/25 13:50:36;;;;;;;4.63;4.22;;;27.20;1.00;;;;;;5006182;28;20564;-51
2022/05/25 13:53:06;;;;;;;10.65;4.78;;;27.10;1.00;;;;;;5000350;28;20491;-53
2022/05/25 13:55:35;;;;;;;6.78;3.85;;;27.00;1.00;;;;;;5003336;28;20400;-54
2022/05/25 13:58:09;;;;;;;5.82;4.78;;;27.00;1.00;;;;;;5013031;28;20518;-49
2022/05/25 14:00:41;;;;;;;8.05;4.13;;;26.90;1.00;;;;;;5007435;28;20053;-52
2022/05/25 14:03:29;;;;;;;5.75;4.57;;;27.00;1.00;;;;;;5007560;28;20555;-54
2022/05/25 14:06:00;;;;;;;7.45;4.72;;;27.20;1.00;;;;;;5000389;28;20365;-51
2022/05/25 14:11:46;;;;;;;6.93;4.55;;;27.50;1.00;;;;;;5003505;28;20040;-53
2022/05/25 14:14:46;;;;;;;9.85;5.75;;;27.60;1.00;;;;;;5001349;28;20046;-52
2022/05/25 14:17:22;;;;;;;8.77;4.93;;;27.50;1.00;;;;;;5004816;28;20542;-55
2022/05/25 14:19:51;;;;;;;6.93;6.13;;;28.10;1.00;;;;;;5002474;28;20057;-50
2022/05/25 14:22:19;;;;;;;7.55;3.97;;;27.90;1.00;;;;;;5005853;28;20026;-48
2022/05/25 14:24:53;;;;;;;6.18;4.80;;;27.90;1.00;;;;;;5005847;28;20030;-47
2022/05/25 14:27:24;;;;;;;6.65;4.35;;;27.80;1.00;;;;;;5003779;28;20164;-52
2022/05/25 14:29:50;;;;;;;6.35;4.70;;;27.50;1.00;;;;;;5005640;28;20125;-53
2022/05/25 14:32:27;;;;;;;9.68;4.70;;;27.30;1.00;;;;;;5005928;28;20042;-52
2022/05/25 14:34:57;;;;;;;6.25;4.75;;;27.30;1.00;;;;;;5004105;28;20109;-51